sensor_id;sensor_type;location;lat;lon;timestamp;temperature;humidity
11536;DHT22;5824;49.336;8.652;2024-01-30T00:01:02;3.10;1.00
11536;DHT22;5824;49.336;8.652;2024-01-30T00:03:28;3.00;1.00
11536;DHT22;5824;49.336;8.652;2024-01-30T00:05:55;3.40;1.00
11536;DHT22;5824;49.336;8.652;2024-01-30T00:08:20;3.00;1.00
11536;DHT22;5824;49.336;8.652;2024-01-30T00:10:46;3.20;1.00
11536;DHT22;5824;49.336;8.652;2024-01-30T00:13:11;2.90;1.00
11536;DHT22;5824;49.336;8.652;2024-01-30T00:15:39;2.80;1.00
11536;DHT22;5824;49.336;8.652;2024-01-30T00:18:04;2.90;1.00
11536;DHT22;5824;49.336;8.652;2024-01-30T00:20:30;2.90;1.00
11536;DHT22;5824;49.336;8.652;2024-01-30T00:22:55;3.20;1.00
11536;DHT22;5824;49.336;8.652;2024-01-30T00:25:21;2.90;1.00
11536;DHT22;5824;49.336;8.652;2024-01-30T00:27:46;2.80;1.00
11536;DHT22;5824;49.336;8.652;2024-01-30T00:30:12;3.20;1.00
11536;DHT22;5824;49.336;8.652;2024-01-30T00:32:38;2.80;1.00
11536;DHT22;5824;49.336;8.652;2024-01-30T00:35:03;2.80;1.00
11536;DHT22;5824;49.336;8.652;2024-01-30T00:37:29;2.80;1.00
11536;DHT22;5824;49.336;8.652;2024-01-30T00:39:54;3.30;1.00
11536;DHT22;5824;49.336;8.652;2024-01-30T00:42:20;2.80;1.00
11536;DHT22;5824;49.336;8.652;2024-01-30T00:44:46;2.80;1.00
11536;DHT22;5824;49.336;8.652;2024-01-30T00:47:12;2.80;1.00
11536;DHT22;5824;49.336;8.652;2024-01-30T00:49:37;2.80;1.00
11536;DHT22;5824;49.336;8.652;2024-01-30T00:52:03;3.00;1.00
11536;DHT22;5824;49.336;8.652;2024-01-30T00:54:29;2.80;1.00
11536;DHT22;5824;49.336;8.652;2024-01-30T00:56:54;2.70;1.00
11536;DHT22;5824;49.336;8.652;2024-01-30T00:59:20;3.10;1.00
11536;DHT22;5824;49.336;8.652;2024-01-30T01:01:45;2.70;1.00
11536;DHT22;5824;49.336;8.652;2024-01-30T01:04:11;3.00;1.00
11536;DHT22;5824;49.336;8.652;2024-01-30T01:06:36;2.60;1.00
11536;DHT22;5824;49.336;8.652;2024-01-30T01:09:02;2.60;1.00
11536;DHT22;5824;49.336;8.652;2024-01-30T01:11:29;2.50;1.00
11536;DHT22;5824;49.336;8.652;2024-01-30T01:13:54;3.00;1.00
11536;DHT22;5824;49.336;8.652;2024-01-30T01:16:20;2.40;1.00
11536;DHT22;5824;49.336;8.652;2024-01-30T01:18:45;2.50;1.00
11536;DHT22;5824;49.336;8.652;2024-01-30T01:21:11;2.50;1.00
11536;DHT22;5824;49.336;8.652;2024-01-30T01:23:36;2.50;1.00
11536;DHT22;5824;49.336;8.652;2024-01-30T01:26:02;2.50;1.00
11536;DHT22;5824;49.336;8.652;2024-01-30T01:28:27;2.60;1.00
11536;DHT22;5824;49.336;8.652;2024-01-30T01:30:53;2.60;1.00
11536;DHT22;5824;49.336;8.652;2024-01-30T01:33:19;2.90;1.00
11536;DHT22;5824;49.336;8.652;2024-01-30T01:35:44;3.00;1.00
11536;DHT22;5824;49.336;8.652;2024-01-30T01:38:10;2.50;1.00
11536;DHT22;5824;49.336;8.652;2024-01-30T01:40:36;2.50;1.00
11536;DHT22;5824;49.336;8.652;2024-01-30T01:43:03;3.00;1.00
11536;DHT22;5824;49.336;8.652;2024-01-30T01:45:30;2.50;1.00
11536;DHT22;5824;49.336;8.652;2024-01-30T01:47:55;2.50;1.00
11536;DHT22;5824;49.336;8.652;2024-01-30T01:50:21;2.50;1.00
11536;DHT22;5824;49.336;8.652;2024-01-30T01:52:48;2.50;1.00
11536;DHT22;5824;49.336;8.652;2024-01-30T01:55:15;2.40;1.00
11536;DHT22;5824;49.336;8.652;2024-01-30T01:57:41;2.40;1.00
11536;DHT22;5824;49.336;8.652;2024-01-30T02:00:08;2.40;1.00
11536;DHT22;5824;49.336;8.652;2024-01-30T02:02:36;2.40;1.00
11536;DHT22;5824;49.336;8.652;2024-01-30T02:05:01;2.30;1.00
11536;DHT22;5824;49.336;8.652;2024-01-30T02:07:28;2.20;1.00
11536;DHT22;5824;49.336;8.652;2024-01-30T02:09:53;2.20;1.00
11536;DHT22;5824;49.336;8.652;2024-01-30T02:12:19;2.30;1.00
11536;DHT22;5824;49.336;8.652;2024-01-30T02:14:48;2.20;1.00
11536;DHT22;5824;49.336;8.652;2024-01-30T02:17:16;2.60;1.00
11536;DHT22;5824;49.336;8.652;2024-01-30T02:19:42;2.30;1.00
11536;DHT22;5824;49.336;8.652;2024-01-30T02:22:08;2.30;1.00
11536;DHT22;5824;49.336;8.652;2024-01-30T02:24:34;2.30;1.00
11536;DHT22;5824;49.336;8.652;2024-01-30T02:27:00;2.40;1.00
11536;DHT22;5824;49.336;8.652;2024-01-30T02:29:25;2.40;1.00
11536;DHT22;5824;49.336;8.652;2024-01-30T02:31:51;2.70;1.00
11536;DHT22;5824;49.336;8.652;2024-01-30T02:34:18;2.30;1.00
11536;DHT22;5824;49.336;8.652;2024-01-30T02:36:44;2.30;1.00
11536;DHT22;5824;49.336;8.652;2024-01-30T02:39:10;2.20;1.00
11536;DHT22;5824;49.336;8.652;2024-01-30T02:41:36;2.30;1.00
11536;DHT22;5824;49.336;8.652;2024-01-30T02:44:02;2.30;1.00
11536;DHT22;5824;49.336;8.652;2024-01-30T02:46:28;2.70;1.00
11536;DHT22;5824;49.336;8.652;2024-01-30T02:48:53;2.20;1.00
11536;DHT22;5824;49.336;8.652;2024-01-30T02:51:19;2.60;1.00
11536;DHT22;5824;49.336;8.652;2024-01-30T02:53:44;2.20;1.00
11536;DHT22;5824;49.336;8.652;2024-01-30T02:56:10;2.20;1.00
11536;DHT22;5824;49.336;8.652;2024-01-30T02:58:36;2.20;1.00
11536;DHT22;5824;49.336;8.652;2024-01-30T03:01:02;2.70;1.00
11536;DHT22;5824;49.336;8.652;2024-01-30T03:03:28;2.10;1.00
11536;DHT22;5824;49.336;8.652;2024-01-30T03:05:54;2.20;1.00
11536;DHT22;5824;49.336;8.652;2024-01-30T03:08:19;2.10;1.00
11536;DHT22;5824;49.336;8.652;2024-01-30T03:10:45;2.60;1.00
11536;DHT22;5824;49.336;8.652;2024-01-30T03:13:10;2.10;1.00
11536;DHT22;5824;49.336;8.652;2024-01-30T03:15:36;2.10;1.00
11536;DHT22;5824;49.336;8.652;2024-01-30T03:18:02;2.10;1.00
11536;DHT22;5824;49.336;8.652;2024-01-30T03:20:29;2.10;1.00
11536;DHT22;5824;49.336;8.652;2024-01-30T03:22:55;2.10;1.00
11536;DHT22;5824;49.336;8.652;2024-01-30T03:25:21;2.10;1.00
11536;DHT22;5824;49.336;8.652;2024-01-30T03:27:46;2.10;1.00
11536;DHT22;5824;49.336;8.652;2024-01-30T03:30:12;2.10;1.00
11536;DHT22;5824;49.336;8.652;2024-01-30T03:32:37;2.10;1.00
11536;DHT22;5824;49.336;8.652;2024-01-30T03:35:03;2.10;1.00
11536;DHT22;5824;49.336;8.652;2024-01-30T03:37:29;2.10;1.00
11536;DHT22;5824;49.336;8.652;2024-01-30T03:39:54;2.50;1.00
11536;DHT22;5824;49.336;8.652;2024-01-30T03:42:20;2.10;1.00
11536;DHT22;5824;49.336;8.652;2024-01-30T03:44:45;2.10;1.00
11536;DHT22;5824;49.336;8.652;2024-01-30T03:47:11;2.10;1.00
11536;DHT22;5824;49.336;8.652;2024-01-30T03:49:37;2.50;1.00
11536;DHT22;5824;49.336;8.652;2024-01-30T03:52:02;2.00;1.00
11536;DHT22;5824;49.336;8.652;2024-01-30T03:54:28;2.10;1.00
11536;DHT22;5824;49.336;8.652;2024-01-30T03:56:53;2.00;1.00
11536;DHT22;5824;49.336;8.652;2024-01-30T03:59:19;2.00;1.00
11536;DHT22;5824;49.336;8.652;2024-01-30T04:01:52;2.10;1.00
11536;DHT22;5824;49.336;8.652;2024-01-30T04:04:18;2.00;1.00
11536;DHT22;5824;49.336;8.652;2024-01-30T04:06:44;2.00;1.00
11536;DHT22;5824;49.336;8.652;2024-01-30T04:09:11;2.00;1.00
11536;DHT22;5824;49.336;8.652;2024-01-30T04:11:38;2.00;1.00
11536;DHT22;5824;49.336;8.652;2024-01-30T04:14:04;2.00;1.00
11536;DHT22;5824;49.336;8.652;2024-01-30T04:16:29;2.00;1.00
11536;DHT22;5824;49.336;8.652;2024-01-30T04:18:55;2.00;1.00
11536;DHT22;5824;49.336;8.652;2024-01-30T04:21:21;2.00;1.00
11536;DHT22;5824;49.336;8.652;2024-01-30T04:23:47;2.40;1.00
11536;DHT22;5824;49.336;8.652;2024-01-30T04:26:13;2.30;1.00
11536;DHT22;5824;49.336;8.652;2024-01-30T04:28:41;2.40;1.00
11536;DHT22;5824;49.336;8.652;2024-01-30T04:31:07;2.00;1.00
11536;DHT22;5824;49.336;8.652;2024-01-30T04:33:32;2.00;1.00
11536;DHT22;5824;49.336;8.652;2024-01-30T04:35:58;2.00;1.00
11536;DHT22;5824;49.336;8.652;2024-01-30T04:38:23;2.00;1.00
11536;DHT22;5824;49.336;8.652;2024-01-30T04:40:49;2.00;1.00
11536;DHT22;5824;49.336;8.652;2024-01-30T04:43:14;2.00;1.00
11536;DHT22;5824;49.336;8.652;2024-01-30T04:45:41;2.00;1.00
11536;DHT22;5824;49.336;8.652;2024-01-30T04:48:07;2.10;1.00
11536;DHT22;5824;49.336;8.652;2024-01-30T04:50:32;2.10;1.00
11536;DHT22;5824;49.336;8.652;2024-01-30T04:52:58;2.10;1.00
11536;DHT22;5824;49.336;8.652;2024-01-30T04:55:23;2.00;1.00
11536;DHT22;5824;49.336;8.652;2024-01-30T04:57:49;2.00;1.00
11536;DHT22;5824;49.336;8.652;2024-01-30T05:00:15;2.00;1.00
11536;DHT22;5824;49.336;8.652;2024-01-30T05:02:41;2.00;1.00
11536;DHT22;5824;49.336;8.652;2024-01-30T05:05:06;2.00;1.00
11536;DHT22;5824;49.336;8.652;2024-01-30T05:07:33;1.90;1.00
11536;DHT22;5824;49.336;8.652;2024-01-30T05:09:59;1.90;1.00
11536;DHT22;5824;49.336;8.652;2024-01-30T05:12:25;1.90;1.00
11536;DHT22;5824;49.336;8.652;2024-01-30T05:14:50;1.90;1.00
11536;DHT22;5824;49.336;8.652;2024-01-30T05:17:16;2.00;1.00
11536;DHT22;5824;49.336;8.652;2024-01-30T05:19:43;2.00;1.00
11536;DHT22;5824;49.336;8.652;2024-01-30T05:22:08;1.90;1.00
11536;DHT22;5824;49.336;8.652;2024-01-30T05:24:36;4.40;1.00
11536;DHT22;5824;49.336;8.652;2024-01-30T05:27:01;2.00;1.00
11536;DHT22;5824;49.336;8.652;2024-01-30T05:29:27;2.00;1.00
11536;DHT22;5824;49.336;8.652;2024-01-30T05:31:53;2.00;1.00
11536;DHT22;5824;49.336;8.652;2024-01-30T05:34:19;2.00;1.00
11536;DHT22;5824;49.336;8.652;2024-01-30T05:36:44;2.00;1.00
11536;DHT22;5824;49.336;8.652;2024-01-30T05:39:10;2.00;1.00
11536;DHT22;5824;49.336;8.652;2024-01-30T05:41:36;2.50;1.00
11536;DHT22;5824;49.336;8.652;2024-01-30T05:44:01;2.00;1.00
11536;DHT22;5824;49.336;8.652;2024-01-30T05:46:27;1.90;1.00
11536;DHT22;5824;49.336;8.652;2024-01-30T05:48:52;1.90;1.00
11536;DHT22;5824;49.336;8.652;2024-01-30T05:51:18;2.20;1.00
11536;DHT22;5824;49.336;8.652;2024-01-30T05:53:43;2.50;1.00
11536;DHT22;5824;49.336;8.652;2024-01-30T05:56:09;2.00;1.00
11536;DHT22;5824;49.336;8.652;2024-01-30T05:58:35;2.00;1.00
11536;DHT22;5824;49.336;8.652;2024-01-30T06:01:00;2.00;1.00
11536;DHT22;5824;49.336;8.652;2024-01-30T06:03:26;2.40;1.00
11536;DHT22;5824;49.336;8.652;2024-01-30T06:05:51;1.90;1.00
11536;DHT22;5824;49.336;8.652;2024-01-30T06:08:17;2.00;1.00
11536;DHT22;5824;49.336;8.652;2024-01-30T06:10:43;2.00;1.00
11536;DHT22;5824;49.336;8.652;2024-01-30T06:13:08;2.00;1.00
11536;DHT22;5824;49.336;8.652;2024-01-30T06:15:34;2.00;1.00
11536;DHT22;5824;49.336;8.652;2024-01-30T06:17:59;2.00;1.00
11536;DHT22;5824;49.336;8.652;2024-01-30T06:20:25;2.00;1.00
11536;DHT22;5824;49.336;8.652;2024-01-30T06:22:50;2.00;1.00
11536;DHT22;5824;49.336;8.652;2024-01-30T06:25:16;2.10;1.00
11536;DHT22;5824;49.336;8.652;2024-01-30T06:27:42;1.90;1.00
11536;DHT22;5824;49.336;8.652;2024-01-30T06:30:08;2.20;1.00
11536;DHT22;5824;49.336;8.652;2024-01-30T06:32:34;1.90;1.00
11536;DHT22;5824;49.336;8.652;2024-01-30T06:35:01;1.90;1.00
11536;DHT22;5824;49.336;8.652;2024-01-30T06:37:27;1.90;1.00
11536;DHT22;5824;49.336;8.652;2024-01-30T06:39:52;1.90;1.00
11536;DHT22;5824;49.336;8.652;2024-01-30T06:42:18;2.30;1.00
11536;DHT22;5824;49.336;8.652;2024-01-30T06:44:44;2.00;1.00
11536;DHT22;5824;49.336;8.652;2024-01-30T06:47:10;2.10;1.00
11536;DHT22;5824;49.336;8.652;2024-01-30T06:49:35;2.10;1.00
11536;DHT22;5824;49.336;8.652;2024-01-30T06:52:05;2.20;1.00
11536;DHT22;5824;49.336;8.652;2024-01-30T06:54:31;2.40;1.00
11536;DHT22;5824;49.336;8.652;2024-01-30T06:56:56;2.50;1.00
11536;DHT22;5824;49.336;8.652;2024-01-30T06:59:22;2.50;1.00
11536;DHT22;5824;49.336;8.652;2024-01-30T07:01:47;2.50;1.00
11536;DHT22;5824;49.336;8.652;2024-01-30T07:04:13;2.70;1.00
11536;DHT22;5824;49.336;8.652;2024-01-30T07:06:38;2.90;1.00
11536;DHT22;5824;49.336;8.652;2024-01-30T07:09:04;2.90;1.00
11536;DHT22;5824;49.336;8.652;2024-01-30T07:11:30;2.60;1.00
11536;DHT22;5824;49.336;8.652;2024-01-30T07:13:56;2.70;1.00
11536;DHT22;5824;49.336;8.652;2024-01-30T07:16:22;2.80;1.00
11536;DHT22;5824;49.336;8.652;2024-01-30T07:18:48;2.80;1.00
11536;DHT22;5824;49.336;8.652;2024-01-30T07:21:14;2.80;1.00
11536;DHT22;5824;49.336;8.652;2024-01-30T07:23:40;2.90;1.00
11536;DHT22;5824;49.336;8.652;2024-01-30T07:26:07;2.90;1.00
11536;DHT22;5824;49.336;8.652;2024-01-30T07:28:34;3.40;1.00
11536;DHT22;5824;49.336;8.652;2024-01-30T07:31:00;3.00;1.00
11536;DHT22;5824;49.336;8.652;2024-01-30T07:33:26;3.20;1.00
11536;DHT22;5824;49.336;8.652;2024-01-30T07:35:54;3.40;1.00
11536;DHT22;5824;49.336;8.652;2024-01-30T07:38:20;3.20;1.00
11536;DHT22;5824;49.336;8.652;2024-01-30T07:40:46;3.40;1.00
11536;DHT22;5824;49.336;8.652;2024-01-30T07:43:11;3.20;1.00
11536;DHT22;5824;49.336;8.652;2024-01-30T07:45:37;3.20;1.00
11536;DHT22;5824;49.336;8.652;2024-01-30T07:48:05;3.40;1.00
11536;DHT22;5824;49.336;8.652;2024-01-30T07:50:30;3.40;1.00
11536;DHT22;5824;49.336;8.652;2024-01-30T07:52:56;3.40;1.00
11536;DHT22;5824;49.336;8.652;2024-01-30T07:55:22;3.40;1.00
11536;DHT22;5824;49.336;8.652;2024-01-30T07:57:54;4.00;1.00
11536;DHT22;5824;49.336;8.652;2024-01-30T08:00:21;3.90;1.00
11536;DHT22;5824;49.336;8.652;2024-01-30T08:02:47;3.70;1.00
11536;DHT22;5824;49.336;8.652;2024-01-30T08:05:13;3.80;1.00
11536;DHT22;5824;49.336;8.652;2024-01-30T08:07:43;4.00;1.00
11536;DHT22;5824;49.336;8.652;2024-01-30T08:10:09;4.00;1.00
11536;DHT22;5824;49.336;8.652;2024-01-30T08:12:35;4.20;1.00
11536;DHT22;5824;49.336;8.652;2024-01-30T08:15:00;4.80;1.00
11536;DHT22;5824;49.336;8.652;2024-01-30T08:17:26;4.60;1.00
11536;DHT22;5824;49.336;8.652;2024-01-30T08:19:51;4.80;1.00
11536;DHT22;5824;49.336;8.652;2024-01-30T08:22:17;5.00;1.00
11536;DHT22;5824;49.336;8.652;2024-01-30T08:24:43;5.70;1.00
11536;DHT22;5824;49.336;8.652;2024-01-30T08:27:08;5.50;1.00
11536;DHT22;5824;49.336;8.652;2024-01-30T08:29:37;5.50;1.00
11536;DHT22;5824;49.336;8.652;2024-01-30T08:32:05;5.70;1.00
11536;DHT22;5824;49.336;8.652;2024-01-30T08:34:31;5.90;1.00
11536;DHT22;5824;49.336;8.652;2024-01-30T08:39:23;6.30;1.00
11536;DHT22;5824;49.336;8.652;2024-01-30T08:41:48;6.50;1.00
11536;DHT22;5824;49.336;8.652;2024-01-30T08:44:14;6.90;1.00
11536;DHT22;5824;49.336;8.652;2024-01-30T08:46:39;7.00;1.00
11536;DHT22;5824;49.336;8.652;2024-01-30T08:49:05;7.30;1.00
11536;DHT22;5824;49.336;8.652;2024-01-30T08:51:31;7.20;1.00
11536;DHT22;5824;49.336;8.652;2024-01-30T08:53:56;7.20;1.00
11536;DHT22;5824;49.336;8.652;2024-01-30T08:56:22;7.30;1.00
11536;DHT22;5824;49.336;8.652;2024-01-30T08:58:47;7.30;1.00
11536;DHT22;5824;49.336;8.652;2024-01-30T09:01:14;7.40;1.00
11536;DHT22;5824;49.336;8.652;2024-01-30T09:03:39;7.50;1.00
11536;DHT22;5824;49.336;8.652;2024-01-30T09:06:09;7.60;1.00
11536;DHT22;5824;49.336;8.652;2024-01-30T09:08:35;7.60;1.00
11536;DHT22;5824;49.336;8.652;2024-01-30T09:11:01;7.60;1.00
11536;DHT22;5824;49.336;8.652;2024-01-30T09:13:26;7.50;1.00
11536;DHT22;5824;49.336;8.652;2024-01-30T09:15:52;7.50;1.00
11536;DHT22;5824;49.336;8.652;2024-01-30T09:18:18;7.50;1.00
11536;DHT22;5824;49.336;8.652;2024-01-30T09:20:43;7.50;1.00
11536;DHT22;5824;49.336;8.652;2024-01-30T09:23:12;7.60;1.00
11536;DHT22;5824;49.336;8.652;2024-01-30T09:25:38;7.60;1.00
11536;DHT22;5824;49.336;8.652;2024-01-30T09:28:04;7.60;1.00
11536;DHT22;5824;49.336;8.652;2024-01-30T09:30:29;7.70;1.00
11536;DHT22;5824;49.336;8.652;2024-01-30T09:32:55;8.10;1.00
11536;DHT22;5824;49.336;8.652;2024-01-30T09:35:20;7.70;1.00
11536;DHT22;5824;49.336;8.652;2024-01-30T09:37:46;7.80;1.00
11536;DHT22;5824;49.336;8.652;2024-01-30T09:40:11;8.00;1.00
11536;DHT22;5824;49.336;8.652;2024-01-30T09:42:37;8.10;1.00
11536;DHT22;5824;49.336;8.652;2024-01-30T09:45:04;8.20;1.00
11536;DHT22;5824;49.336;8.652;2024-01-30T09:47:41;8.40;1.00
11536;DHT22;5824;49.336;8.652;2024-01-30T09:50:09;8.50;1.00
11536;DHT22;5824;49.336;8.652;2024-01-30T09:52:35;8.50;1.00
11536;DHT22;5824;49.336;8.652;2024-01-30T09:55:01;8.60;1.00
11536;DHT22;5824;49.336;8.652;2024-01-30T09:57:26;8.70;1.00
11536;DHT22;5824;49.336;8.652;2024-01-30T09:59:52;8.90;1.00
11536;DHT22;5824;49.336;8.652;2024-01-30T10:02:22;9.00;1.00
11536;DHT22;5824;49.336;8.652;2024-01-30T10:04:52;8.90;1.00
11536;DHT22;5824;49.336;8.652;2024-01-30T10:07:18;8.90;1.00
11536;DHT22;5824;49.336;8.652;2024-01-30T10:09:45;8.90;1.00
11536;DHT22;5824;49.336;8.652;2024-01-30T10:12:10;9.00;1.00
11536;DHT22;5824;49.336;8.652;2024-01-30T10:14:39;9.10;1.00
11536;DHT22;5824;49.336;8.652;2024-01-30T10:17:07;9.20;1.00
11536;DHT22;5824;49.336;8.652;2024-01-30T10:19:32;9.20;1.00
11536;DHT22;5824;49.336;8.652;2024-01-30T10:22:00;9.30;1.00
11536;DHT22;5824;49.336;8.652;2024-01-30T10:24:26;9.40;1.00
11536;DHT22;5824;49.336;8.652;2024-01-30T10:26:52;9.50;1.00
11536;DHT22;5824;49.336;8.652;2024-01-30T10:29:18;9.50;1.00
11536;DHT22;5824;49.336;8.652;2024-01-30T10:31:44;9.60;1.00
11536;DHT22;5824;49.336;8.652;2024-01-30T10:34:09;9.70;1.00
11536;DHT22;5824;49.336;8.652;2024-01-30T10:36:40;9.80;1.00
11536;DHT22;5824;49.336;8.652;2024-01-30T10:39:08;10.30;1.00
11536;DHT22;5824;49.336;8.652;2024-01-30T10:41:40;10.90;1.00
11536;DHT22;5824;49.336;8.652;2024-01-30T10:44:09;11.60;1.00
11536;DHT22;5824;49.336;8.652;2024-01-30T10:46:38;12.10;1.00
11536;DHT22;5824;49.336;8.652;2024-01-30T10:49:04;12.10;1.00
11536;DHT22;5824;49.336;8.652;2024-01-30T10:51:31;11.70;1.00
11536;DHT22;5824;49.336;8.652;2024-01-30T10:53:57;11.30;1.00
11536;DHT22;5824;49.336;8.652;2024-01-30T10:56:24;10.80;1.00
11536;DHT22;5824;49.336;8.652;2024-01-30T10:58:53;10.60;1.00
11536;DHT22;5824;49.336;8.652;2024-01-30T11:01:23;10.50;1.00
11536;DHT22;5824;49.336;8.652;2024-01-30T11:03:51;10.40;1.00
11536;DHT22;5824;49.336;8.652;2024-01-30T11:06:17;10.40;1.00
11536;DHT22;5824;49.336;8.652;2024-01-30T11:08:45;10.30;1.00
11536;DHT22;5824;49.336;8.652;2024-01-30T11:11:11;10.30;1.00
11536;DHT22;5824;49.336;8.652;2024-01-30T11:13:37;10.30;1.00
11536;DHT22;5824;49.336;8.652;2024-01-30T11:16:03;10.40;1.00
11536;DHT22;5824;49.336;8.652;2024-01-30T11:18:30;10.70;1.00
11536;DHT22;5824;49.336;8.652;2024-01-30T11:21:00;11.10;1.00
11536;DHT22;5824;49.336;8.652;2024-01-30T11:23:29;12.00;1.00
11536;DHT22;5824;49.336;8.652;2024-01-30T11:25:56;12.40;1.00
11536;DHT22;5824;49.336;8.652;2024-01-30T11:28:22;12.80;1.00
11536;DHT22;5824;49.336;8.652;2024-01-30T11:30:48;12.70;1.00
11536;DHT22;5824;49.336;8.652;2024-01-30T11:33:26;12.80;1.00
11536;DHT22;5824;49.336;8.652;2024-01-30T11:35:52;12.50;1.00
11536;DHT22;5824;49.336;8.652;2024-01-30T11:38:18;12.60;1.00
11536;DHT22;5824;49.336;8.652;2024-01-30T11:40:44;12.60;1.00
11536;DHT22;5824;49.336;8.652;2024-01-30T11:43:09;12.90;1.00
11536;DHT22;5824;49.336;8.652;2024-01-30T11:45:36;13.60;1.00
11536;DHT22;5824;49.336;8.652;2024-01-30T11:48:02;13.90;1.00
11536;DHT22;5824;49.336;8.652;2024-01-30T11:50:33;13.80;1.00
11536;DHT22;5824;49.336;8.652;2024-01-30T11:53:02;13.50;1.00
11536;DHT22;5824;49.336;8.652;2024-01-30T11:55:29;13.90;1.00
11536;DHT22;5824;49.336;8.652;2024-01-30T11:57:58;14.40;1.00
11536;DHT22;5824;49.336;8.652;2024-01-30T12:00:24;14.60;1.00
11536;DHT22;5824;49.336;8.652;2024-01-30T12:02:51;14.60;1.00
11536;DHT22;5824;49.336;8.652;2024-01-30T12:05:21;14.30;1.00
11536;DHT22;5824;49.336;8.652;2024-01-30T12:07:47;13.70;1.00
11536;DHT22;5824;49.336;8.652;2024-01-30T12:10:13;13.50;1.00
11536;DHT22;5824;49.336;8.652;2024-01-30T12:12:45;13.40;1.00
11536;DHT22;5824;49.336;8.652;2024-01-30T12:15:11;13.30;1.00
11536;DHT22;5824;49.336;8.652;2024-01-30T12:17:37;13.20;1.00
11536;DHT22;5824;49.336;8.652;2024-01-30T12:20:09;13.10;1.00
11536;DHT22;5824;49.336;8.652;2024-01-30T12:22:40;12.90;1.00
11536;DHT22;5824;49.336;8.652;2024-01-30T12:25:17;12.80;1.00
11536;DHT22;5824;49.336;8.652;2024-01-30T12:27:44;12.70;1.00
11536;DHT22;5824;49.336;8.652;2024-01-30T12:30:12;12.70;1.00
11536;DHT22;5824;49.336;8.652;2024-01-30T12:32:43;12.90;1.00
11536;DHT22;5824;49.336;8.652;2024-01-30T12:35:13;13.20;1.00
11536;DHT22;5824;49.336;8.652;2024-01-30T12:37:40;13.50;1.00
11536;DHT22;5824;49.336;8.652;2024-01-30T12:40:07;13.80;1.00
11536;DHT22;5824;49.336;8.652;2024-01-30T12:42:33;13.80;1.00
11536;DHT22;5824;49.336;8.652;2024-01-30T12:44:59;13.70;1.00
11536;DHT22;5824;49.336;8.652;2024-01-30T12:47:25;13.90;1.00
11536;DHT22;5824;49.336;8.652;2024-01-30T12:49:51;14.20;1.00
11536;DHT22;5824;49.336;8.652;2024-01-30T12:52:20;14.70;1.00
11536;DHT22;5824;49.336;8.652;2024-01-30T12:54:47;15.10;1.00
11536;DHT22;5824;49.336;8.652;2024-01-30T12:57:12;15.10;1.00
11536;DHT22;5824;49.336;8.652;2024-01-30T12:59:38;15.20;1.00
11536;DHT22;5824;49.336;8.652;2024-01-30T13:02:04;15.40;1.00
11536;DHT22;5824;49.336;8.652;2024-01-30T13:04:30;15.30;1.00
11536;DHT22;5824;49.336;8.652;2024-01-30T13:06:55;15.20;1.00
11536;DHT22;5824;49.336;8.652;2024-01-30T13:09:22;15.20;1.00
11536;DHT22;5824;49.336;8.652;2024-01-30T13:11:48;15.10;1.00
11536;DHT22;5824;49.336;8.652;2024-01-30T13:14:14;14.80;1.00
11536;DHT22;5824;49.336;8.652;2024-01-30T13:16:39;14.60;1.00
11536;DHT22;5824;49.336;8.652;2024-01-30T13:19:05;14.50;1.00
11536;DHT22;5824;49.336;8.652;2024-01-30T13:21:31;14.30;1.00
11536;DHT22;5824;49.336;8.652;2024-01-30T13:23:56;14.20;1.00
11536;DHT22;5824;49.336;8.652;2024-01-30T13:26:22;14.00;1.00
11536;DHT22;5824;49.336;8.652;2024-01-30T13:28:47;13.90;1.00
11536;DHT22;5824;49.336;8.652;2024-01-30T13:31:14;13.80;1.00
11536;DHT22;5824;49.336;8.652;2024-01-30T13:33:40;13.70;1.00
11536;DHT22;5824;49.336;8.652;2024-01-30T13:36:06;13.80;1.00
11536;DHT22;5824;49.336;8.652;2024-01-30T13:38:32;13.80;1.00
11536;DHT22;5824;49.336;8.652;2024-01-30T13:40:59;13.80;1.00
11536;DHT22;5824;49.336;8.652;2024-01-30T13:43:24;13.70;1.00
11536;DHT22;5824;49.336;8.652;2024-01-30T13:45:49;13.60;1.00
11536;DHT22;5824;49.336;8.652;2024-01-30T13:48:15;13.60;1.00
11536;DHT22;5824;49.336;8.652;2024-01-30T13:50:40;13.60;1.00
11536;DHT22;5824;49.336;8.652;2024-01-30T13:53:06;13.70;1.00
11536;DHT22;5824;49.336;8.652;2024-01-30T13:55:32;13.60;1.00
11536;DHT22;5824;49.336;8.652;2024-01-30T13:57:57;13.40;1.00
11536;DHT22;5824;49.336;8.652;2024-01-30T14:00:23;13.30;1.00
11536;DHT22;5824;49.336;8.652;2024-01-30T14:02:50;13.20;1.00
11536;DHT22;5824;49.336;8.652;2024-01-30T14:05:16;13.20;1.00
11536;DHT22;5824;49.336;8.652;2024-01-30T14:07:42;13.10;1.00
11536;DHT22;5824;49.336;8.652;2024-01-30T14:10:09;13.10;1.00
11536;DHT22;5824;49.336;8.652;2024-01-30T14:12:36;12.90;1.00
11536;DHT22;5824;49.336;8.652;2024-01-30T14:15:02;12.80;1.00
11536;DHT22;5824;49.336;8.652;2024-01-30T14:17:27;12.70;1.00
11536;DHT22;5824;49.336;8.652;2024-01-30T14:19:53;12.70;1.00
11536;DHT22;5824;49.336;8.652;2024-01-30T14:22:18;12.70;1.00
11536;DHT22;5824;49.336;8.652;2024-01-30T14:24:44;12.70;1.00
11536;DHT22;5824;49.336;8.652;2024-01-30T14:27:10;12.60;1.00
11536;DHT22;5824;49.336;8.652;2024-01-30T14:29:35;12.70;1.00
11536;DHT22;5824;49.336;8.652;2024-01-30T14:32:01;12.70;1.00
11536;DHT22;5824;49.336;8.652;2024-01-30T14:34:27;12.70;1.00
11536;DHT22;5824;49.336;8.652;2024-01-30T14:36:52;12.60;1.00
11536;DHT22;5824;49.336;8.652;2024-01-30T14:39:18;12.60;1.00
11536;DHT22;5824;49.336;8.652;2024-01-30T14:41:44;12.60;1.00
11536;DHT22;5824;49.336;8.652;2024-01-30T14:44:09;12.60;1.00
11536;DHT22;5824;49.336;8.652;2024-01-30T14:46:36;12.60;1.00
11536;DHT22;5824;49.336;8.652;2024-01-30T14:49:02;12.50;1.00
11536;DHT22;5824;49.336;8.652;2024-01-30T14:51:30;12.50;1.00
11536;DHT22;5824;49.336;8.652;2024-01-30T14:53:56;12.50;1.00
11536;DHT22;5824;49.336;8.652;2024-01-30T14:56:22;12.50;1.00
11536;DHT22;5824;49.336;8.652;2024-01-30T14:58:48;12.50;1.00
11536;DHT22;5824;49.336;8.652;2024-01-30T15:01:14;12.50;1.00
11536;DHT22;5824;49.336;8.652;2024-01-30T15:03:39;12.40;1.00
11536;DHT22;5824;49.336;8.652;2024-01-30T15:06:06;12.40;1.00
11536;DHT22;5824;49.336;8.652;2024-01-30T15:08:31;12.40;1.00
11536;DHT22;5824;49.336;8.652;2024-01-30T15:10:58;12.30;1.00
11536;DHT22;5824;49.336;8.652;2024-01-30T15:13:23;12.20;1.00
11536;DHT22;5824;49.336;8.652;2024-01-30T15:15:49;12.20;1.00
11536;DHT22;5824;49.336;8.652;2024-01-30T15:18:14;12.00;1.00
11536;DHT22;5824;49.336;8.652;2024-01-30T15:20:40;12.00;1.00
11536;DHT22;5824;49.336;8.652;2024-01-30T15:23:05;11.90;1.00
11536;DHT22;5824;49.336;8.652;2024-01-30T15:25:31;11.90;1.00
11536;DHT22;5824;49.336;8.652;2024-01-30T15:27:56;11.80;1.00
11536;DHT22;5824;49.336;8.652;2024-01-30T15:30:22;11.80;1.00
11536;DHT22;5824;49.336;8.652;2024-01-30T15:32:48;11.70;1.00
11536;DHT22;5824;49.336;8.652;2024-01-30T15:35:14;11.60;1.00
11536;DHT22;5824;49.336;8.652;2024-01-30T15:37:39;11.60;1.00
11536;DHT22;5824;49.336;8.652;2024-01-30T15:40:05;11.40;1.00
11536;DHT22;5824;49.336;8.652;2024-01-30T15:42:32;11.40;1.00
11536;DHT22;5824;49.336;8.652;2024-01-30T15:44:57;11.40;1.00
11536;DHT22;5824;49.336;8.652;2024-01-30T15:47:24;11.40;1.00
11536;DHT22;5824;49.336;8.652;2024-01-30T15:49:50;12.20;1.00
11536;DHT22;5824;49.336;8.652;2024-01-30T15:52:15;11.40;1.00
11536;DHT22;5824;49.336;8.652;2024-01-30T15:54:43;11.40;1.00
11536;DHT22;5824;49.336;8.652;2024-01-30T15:57:09;11.30;1.00
11536;DHT22;5824;49.336;8.652;2024-01-30T15:59:36;11.30;1.00
11536;DHT22;5824;49.336;8.652;2024-01-30T16:02:02;11.40;1.00
11536;DHT22;5824;49.336;8.652;2024-01-30T16:04:28;11.20;1.00
11536;DHT22;5824;49.336;8.652;2024-01-30T16:06:54;11.10;1.00